Time;durP1;ratioP1;P1;durP2;ratioP2;P2;SDS_P1;SDS_P2;PMS_P1;PMS_P2;Temp;Humidity;BMP_temperature;BMP_pressure;BME280_temperature;BME280_humidity;BME280_pressure;Samples;Min_cycle;Max_cycle;Signal;HPM_P1;HPM_P2
2021/01/18 00:01:51;;;;;;;40.40;30.77;;;0.80;99.90;;;1.58;99.93;98563.47;5222889;28;20201;-76
2021/01/18 00:04:24;;;;;;;43.80;31.27;;;0.80;99.90;;;1.58;100.00;98558.44;5224305;28;20296;-75
2021/01/18 00:06:56;;;;;;;45.37;30.53;;;0.80;99.90;;;1.58;100.00;98571.03;5225935;28;20222;-76
2021/01/18 00:09:28;;;;;;;39.90;28.80;;;0.80;99.90;;;1.54;100.00;98564.75;5227876;28;20212;-76
2021/01/18 00:12:00;;;;;;;43.37;31.83;;;0.90;99.90;;;1.57;100.00;98561.66;5227694;28;20578;-75
2021/01/18 00:14:32;;;;;;;41.50;30.03;;;0.90;99.90;;;1.58;100.00;98560.97;5227571;28;20623;-75
2021/01/18 00:17:07;;;;;;;45.13;30.37;;;0.90;99.90;;;1.57;100.00;98551.59;5227699;28;20288;-75
2021/01/18 00:19:39;;;;;;;39.63;28.33;;;0.90;99.90;;;1.60;100.00;98559.47;5227505;28;20253;-75
2021/01/18 00:22:12;;;;;;;37.80;28.00;;;0.90;99.90;;;1.61;100.00;98561.25;5227493;28;20220;-76
2021/01/18 00:24:44;;;;;;;37.17;27.07;;;0.90;99.90;;;1.63;100.00;98556.38;5227650;28;20218;-78
2021/01/18 00:27:16;;;;;;;37.13;25.87;;;0.90;99.90;;;1.67;100.00;98561.00;5215259;28;20232;-79
2021/01/18 00:29:48;;;;;;;36.50;25.40;;;1.00;99.90;;;1.69;100.00;98560.44;5227191;28;20567;-79
2021/01/18 00:32:22;;;;;;;35.47;25.10;;;1.00;99.90;;;1.72;100.00;98555.69;5227314;28;20306;-75
2021/01/18 00:34:55;;;;;;;38.63;27.70;;;0.90;99.90;;;1.73;100.00;98556.59;5227310;28;20615;-77
2021/01/18 00:37:27;;;;;;;36.73;27.23;;;0.90;99.90;;;1.68;100.00;98561.13;5227599;28;20243;-77
2021/01/18 00:39:59;;;;;;;34.10;27.43;;;0.90;99.90;;;1.66;100.00;98557.59;5227441;28;20196;-80
2021/01/18 00:42:31;;;;;;;38.47;27.87;;;0.90;99.90;;;1.68;100.00;98555.22;5227321;28;20220;-78
2021/01/18 00:45:05;;;;;;;43.03;30.47;;;0.90;99.90;;;1.69;100.00;98554.47;5227589;28;20225;-75
2021/01/18 00:47:43;;;;;;;41.03;29.40;;;0.90;99.90;;;1.67;100.00;98555.97;5226881;28;20747;-79
2021/01/18 00:50:17;;;;;;;38.87;27.43;;;0.90;99.90;;;1.68;100.00;98561.13;5227728;28;20254;-75
2021/01/18 00:52:54;;;;;;;35.30;27.67;;;0.90;99.90;;;1.68;100.00;98552.69;5227219;28;20252;-75
2021/01/18 00:55:27;;;;;;;33.10;25.97;;;1.00;99.90;;;1.66;100.00;98557.59;5227739;28;20272;-79
2021/01/18 00:57:59;;;;;;;40.33;28.40;;;0.90;99.90;;;1.71;100.00;98560.56;5227735;28;20211;-75
2021/01/18 01:00:31;;;;;;;34.60;25.87;;;0.90;99.90;;;1.71;100.00;98558.94;5226651;28;20570;-76
2021/01/18 01:03:04;;;;;;;33.57;26.93;;;0.90;99.90;;;1.64;100.00;98556.53;5226501;28;20314;-77
2021/01/18 01:05:36;;;;;;;37.83;27.03;;;0.90;99.90;;;1.73;100.00;98556.59;5227745;28;20315;-76
2021/01/18 01:08:08;;;;;;;36.60;26.27;;;0.90;99.90;;;1.69;100.00;98562.94;5227555;28;20553;-76
2021/01/18 01:10:40;;;;;;;38.37;28.00;;;0.90;99.90;;;1.66;100.00;98560.13;5227133;28;20252;-77
2021/01/18 01:13:14;;;;;;;39.40;28.20;;;0.90;99.90;;;1.66;100.00;98557.59;5227098;28;20251;-76
2021/01/18 01:15:46;;;;;;;36.77;27.10;;;1.00;99.90;;;1.69;100.00;98555.38;5226751;28;20741;-76
2021/01/18 01:18:19;;;;;;;34.97;26.03;;;1.00;99.90;;;1.67;100.00;98556.84;5225678;28;20666;-76
2021/01/18 01:20:52;;;;;;;31.17;24.10;;;1.00;99.90;;;1.66;100.00;98555.06;5226773;28;20201;-75
2021/01/18 01:23:24;;;;;;;31.77;23.93;;;1.00;99.90;;;1.68;100.00;98557.75;5226709;28;20691;-78
2021/01/18 01:25:56;;;;;;;30.63;22.77;;;1.00;99.90;;;1.67;100.00;98555.97;5227208;28;20300;-79
2021/01/18 01:28:29;;;;;;;29.33;23.10;;;1.00;99.90;;;1.67;100.00;98551.81;5227198;28;20200;-76
2021/01/18 01:31:01;;;;;;;26.13;21.23;;;1.00;99.90;;;1.68;100.00;98551.06;5226667;28;20287;-76
2021/01/18 01:33:34;;;;;;;26.23;19.83;;;1.00;99.90;;;1.69;100.00;98565.47;5225946;28;20603;-77
2021/01/18 01:36:07;;;;;;;26.33;20.43;;;1.00;99.90;;;1.71;100.00;98563.09;5227660;28;20279;-75
2021/01/18 01:38:40;;;;;;;25.53;20.23;;;1.00;99.90;;;1.71;100.00;98563.97;5228240;28;20293;-76
2021/01/18 01:41:12;;;;;;;25.17;19.23;;;1.00;99.90;;;1.72;100.00;98570.81;5228276;28;20273;-76
2021/01/18 01:43:44;;;;;;;21.43;18.60;;;1.10;99.90;;;1.76;100.00;98562.81;5227224;28;20271;-78
2021/01/18 01:46:16;;;;;;;22.33;18.97;;;1.00;99.90;;;1.77;100.00;98564.63;5227576;28;20710;-77
2021/01/18 01:48:49;;;;;;;23.63;17.97;;;1.10;99.90;;;1.78;100.00;98568.91;5228783;28;20202;-77
2021/01/18 01:51:23;;;;;;;24.17;19.17;;;1.10;99.90;;;1.83;100.00;98573.53;5228144;28;20201;-75
2021/01/18 01:53:57;;;;;;;24.87;21.27;;;1.00;99.90;;;1.86;100.00;98574.75;5228395;28;20228;-76
2021/01/18 01:56:29;;;;;;;31.43;23.57;;;1.00;99.90;;;1.83;100.00;98573.53;5228779;28;20934;-78
2021/01/18 01:59:02;;;;;;;29.60;22.93;;;1.00;99.90;;;1.82;100.00;98566.72;5228212;28;20207;-76
2021/01/18 02:01:36;;;;;;;35.33;24.50;;;0.90;99.90;;;1.78;100.00;98565.50;5228841;28;20581;-78
2021/01/18 02:04:13;;;;;;;28.07;21.27;;;0.90;99.90;;;1.72;100.00;98563.25;5228417;28;20338;-75
2021/01/18 02:06:45;;;;;;;32.80;23.00;;;0.90;99.90;;;1.71;100.00;98573.16;5228644;28;20266;-78
2021/01/18 02:09:17;;;;;;;29.47;22.30;;;0.90;99.90;;;1.71;100.00;98569.00;5228182;28;20574;-75
2021/01/18 02:11:49;;;;;;;27.47;21.63;;;1.00;99.90;;;1.74;100.00;98569.31;5229152;28;20208;-75
2021/01/18 02:14:37;;;;;;;26.10;21.33;;;1.00;99.90;;;1.76;100.00;98565.34;5227877;28;20256;-75
2021/01/18 02:17:18;;;;;;;29.17;21.20;;;1.00;99.90;;;1.81;100.00;98575.91;5228745;28;20344;-76
2021/01/18 02:20:37;;;;;;;26.57;20.83;;;1.00;99.90;;;1.84;100.00;98570.28;5228184;28;20235;-76
2021/01/18 02:23:44;;;;;;;22.00;17.53;;;0.90;99.90;;;1.82;100.00;98574.28;5164988;28;20301;-78
2021/01/18 02:26:32;;;;;;;20.37;16.50;;;0.90;99.90;;;1.80;99.85;98575.03;5208124;28;20229;-78
2021/01/18 02:29:18;;;;;;;21.07;16.40;;;0.90;99.90;;;1.73;99.88;98577.63;5228898;28;20199;-75
2021/01/18 02:32:22;;;;;;;18.27;15.80;;;1.00;99.90;;;1.76;100.00;98582.97;5227324;28;20288;-76
2021/01/18 02:35:19;;;;;;;18.67;15.40;;;1.00;99.90;;;1.71;100.00;98588.28;5228971;28;20193;-76
2021/01/18 02:38:08;;;;;;;15.83;14.13;;;1.00;99.90;;;1.73;100.00;98597.78;5227795;28;20247;-76
2021/01/18 02:40:52;;;;;;;16.07;14.33;;;1.00;99.90;;;1.80;100.00;98587.63;5230632;28;20223;-78
2021/01/18 02:43:29;;;;;;;16.37;14.67;;;1.10;99.90;;;1.80;100.00;98592.66;5226793;28;20229;-77
2021/01/18 02:46:03;;;;;;;17.73;14.73;;;1.10;99.90;;;1.85;100.00;98589.69;5229241;28;20758;-76
2021/01/18 02:48:38;;;;;;;16.10;13.47;;;1.10;99.90;;;1.87;100.00;98590.75;5227262;28;20222;-76
2021/01/18 02:51:16;;;;;;;17.43;14.53;;;1.10;99.90;;;1.90;100.00;98583.50;5228167;28;20189;-77
2021/01/18 02:54:00;;;;;;;16.40;14.63;;;1.20;99.90;;;1.92;100.00;98589.59;5227541;28;20682;-75
2021/01/18 02:56:34;;;;;;;15.77;13.83;;;1.10;99.90;;;1.92;100.00;98589.59;5224390;28;20194;-75
2021/01/18 02:59:11;;;;;;;17.80;15.07;;;1.10;99.90;;;1.96;100.00;98589.16;5207021;28;20562;-77
2021/01/18 03:01:57;;;;;;;16.30;14.60;;;1.20;99.90;;;1.92;100.00;98585.44;5225933;28;20668;-77
2021/01/18 03:05:01;;;;;;;17.97;15.27;;;1.20;99.90;;;1.96;100.00;98590.06;5228006;28;20196;-75
2021/01/18 03:07:45;;;;;;;15.80;14.10;;;1.20;99.90;;;1.96;100.00;98585.00;5226961;28;20200;-77
2021/01/18 03:10:25;;;;;;;18.10;14.53;;;1.20;99.90;;;1.96;100.00;98584.13;5227534;28;20663;-78
2021/01/18 03:13:02;;;;;;;17.43;14.33;;;1.20;99.90;;;1.95;100.00;98582.34;5226699;28;20242;-76
2021/01/18 03:15:41;;;;;;;17.57;15.13;;;1.20;99.90;;;1.95;100.00;98584.88;5227975;28;20211;-78
2021/01/18 03:18:18;;;;;;;18.57;15.63;;;1.20;99.90;;;1.92;100.00;98580.41;5227218;28;20276;-76
2021/01/18 03:20:51;;;;;;;18.33;15.57;;;1.20;99.90;;;1.94;100.00;98578.03;5226880;28;20202;-78
2021/01/18 03:23:24;;;;;;;17.83;15.93;;;1.20;99.90;;;1.96;100.00;98582.50;5228808;28;20278;-76
2021/01/18 03:25:58;;;;;;;20.23;16.73;;;1.10;99.90;;;1.96;100.00;98586.66;5227529;28;20227;-76
2021/01/18 03:28:30;;;;;;;16.97;15.00;;;1.10;99.90;;;1.95;100.00;98589.91;5228907;28;20623;-78
2021/01/18 03:31:02;;;;;;;17.77;15.73;;;1.20;99.90;;;1.97;100.00;98590.94;5229116;28;20197;-77
2021/01/18 03:33:35;;;;;;;19.40;15.90;;;1.20;99.90;;;1.99;100.00;98592.00;5228133;28;20661;-76
2021/01/18 03:36:07;;;;;;;16.67;14.90;;;1.20;99.90;;;1.95;100.00;98593.31;5228395;28;20220;-78
2021/01/18 03:38:39;;;;;;;18.30;15.97;;;1.20;99.90;;;1.92;100.00;98585.44;5228067;28;20631;-77
2021/01/18 03:41:13;;;;;;;18.33;16.27;;;1.20;99.90;;;1.88;100.00;98588.38;5229412;28;20293;-77
2021/01/18 03:43:46;;;;;;;19.33;15.10;;;1.20;99.90;;;1.93;100.00;98581.31;5232244;28;20227;-77
2021/01/18 03:46:18;;;;;;;16.57;14.40;;;1.20;99.90;;;1.92;100.00;98584.56;5231975;28;20224;-75
2021/01/18 03:48:51;;;;;;;17.00;15.23;;;1.20;99.90;;;1.92;100.00;98584.56;5233345;28;20211;-76
2021/01/18 03:51:29;;;;;;;18.27;15.83;;;1.10;99.90;;;1.91;100.00;98583.66;5231063;28;20284;-77
2021/01/18 03:54:01;;;;;;;16.50;14.70;;;1.20;99.90;;;1.92;100.00;98577.00;5233279;28;20225;-77
2021/01/18 03:56:39;;;;;;;19.33;15.27;;;1.20;99.90;;;1.94;100.00;98588.13;5231343;28;20215;-76
2021/01/18 03:59:11;;;;;;;16.17;14.17;;;1.20;99.90;;;1.89;100.00;98595.22;5231610;28;20589;-76
2021/01/18 04:01:44;;;;;;;16.60;14.67;;;1.20;99.90;;;1.88;100.00;98597.56;5230583;28;20221;-76
2021/01/18 04:04:16;;;;;;;16.67;14.97;;;1.20;99.90;;;1.90;100.00;98588.56;5234084;28;20206;-76
2021/01/18 04:06:48;;;;;;;18.37;14.27;;;1.10;99.90;;;1.92;100.00;98592.13;5231974;28;20307;-76
2021/01/18 04:09:21;;;;;;;18.73;15.73;;;1.10;99.90;;;1.89;100.00;98591.78;5231447;28;20228;-76
2021/01/18 04:11:53;;;;;;;17.00;15.03;;;1.00;99.90;;;1.86;100.00;98594.91;5232143;28;20232;-75
2021/01/18 04:14:25;;;;;;;17.50;14.73;;;1.10;99.90;;;1.85;100.00;98592.22;5232975;28;20269;-77
2021/01/18 04:16:57;;;;;;;19.23;15.73;;;1.10;99.90;;;1.86;100.00;98604.06;5232638;28;20206;-77
2021/01/18 04:19:29;;;;;;;19.73;15.80;;;1.10;99.90;;;1.76;100.00;98608.19;5231719;28;20599;-78
2021/01/18 04:22:05;;;;;;;17.63;14.90;;;1.10;99.90;;;1.67;100.00;98601.31;5232943;28;20228;-76
2021/01/18 04:24:37;;;;;;;20.77;16.63;;;1.10;99.90;;;1.52;99.44;98609.06;5231168;28;20228;-76
2021/01/18 04:27:10;;;;;;;18.83;15.70;;;1.00;99.90;;;1.56;99.43;98610.28;5233337;28;20229;-77
2021/01/18 04:29:43;;;;;;;19.20;15.63;;;1.00;99.90;;;1.48;99.16;98614.50;5228725;28;20215;-78
2021/01/18 04:32:15;;;;;;;20.00;15.87;;;1.00;99.90;;;1.43;99.20;98609.72;5232298;28;20302;-76
2021/01/18 04:34:47;;;;;;;19.63;14.87;;;0.90;99.90;;;1.42;99.49;98607.94;5231127;28;20261;-78
2021/01/18 04:37:19;;;;;;;20.97;15.70;;;0.90;99.90;;;1.38;99.14;98610.91;5234620;28;20253;-76
2021/01/18 04:39:52;;;;;;;19.13;15.00;;;0.90;99.90;;;1.34;99.27;98613.09;5228669;28;20282;-76
2021/01/18 04:42:26;;;;;;;22.57;16.53;;;0.90;99.90;;;1.30;99.13;98613.50;5228129;28;20228;-76
2021/01/18 04:44:58;;;;;;;19.80;15.77;;;0.80;99.90;;;1.29;99.65;98616.75;5227938;28;20202;-76
2021/01/18 04:47:34;;;;;;;18.83;15.00;;;0.80;99.90;;;1.24;99.31;98622.94;5227394;28;20205;-75
2021/01/18 04:50:09;;;;;;;18.70;16.27;;;0.80;99.90;;;1.26;99.20;98626.50;5227650;28;20192;-75
2021/01/18 04:52:52;;;;;;;21.13;15.37;;;0.70;99.90;;;1.24;99.33;98627.06;5226544;28;20232;-75
2021/01/18 04:55:31;;;;;;;20.97;15.57;;;0.70;99.90;;;1.18;99.36;98627.31;5227995;28;20194;-76
2021/01/18 04:58:07;;;;;;;19.47;15.10;;;0.60;99.90;;;1.20;99.51;98622.44;5228539;28;20300;-75
2021/01/18 05:00:43;;;;;;;19.47;15.50;;;0.60;99.90;;;1.16;98.72;98612.78;5227072;28;20273;-75
2021/01/18 05:03:17;;;;;;;17.53;14.57;;;0.60;99.90;;;1.18;99.65;98624.81;5222625;28;20782;-74
2021/01/18 05:06:53;;;;;;;15.07;13.47;;;0.60;99.90;;;1.13;99.72;98623.41;5229218;28;20407;-75
2021/01/18 05:09:30;;;;;;;16.30;12.80;;;0.60;99.90;;;1.13;99.73;98623.41;5171454;28;20289;-75
2021/01/18 05:12:02;;;;;;;15.87;12.83;;;0.50;99.90;;;1.16;99.95;98623.75;5224279;28;20217;-76
2021/01/18 05:14:37;;;;;;;15.83;12.47;;;0.50;99.90;;;1.12;100.00;98626.69;5227426;28;20809;-75
2021/01/18 05:17:15;;;;;;;12.87;11.57;;;0.50;99.90;;;1.09;100.00;98624.72;5230671;28;20213;-76
2021/01/18 05:19:49;;;;;;;13.13;10.93;;;0.50;99.90;;;1.17;99.92;98630.56;5228961;28;20201;-77
2021/01/18 05:22:21;;;;;;;13.73;10.80;;;0.50;99.90;;;1.18;100.00;98626.44;5229962;28;20225;-78
2021/01/18 05:24:54;;;;;;;17.33;11.67;;;0.50;99.90;;;1.14;99.59;98630.22;5230331;28;20581;-76
2021/01/18 05:27:26;;;;;;;15.33;12.00;;;0.50;99.90;;;1.10;100.00;98631.53;5227909;28;20698;-76
2021/01/18 05:29:59;;;;;;;15.57;11.90;;;0.60;99.90;;;1.08;99.90;98635.50;5228159;28;20237;-76
2021/01/18 05:32:31;;;;;;;14.83;12.10;;;0.50;99.90;;;1.15;99.56;98636.19;5228403;28;20302;-78
2021/01/18 05:35:14;;;;;;;15.90;12.87;;;0.50;99.90;;;1.13;100.00;98636.00;5231051;28;20195;-77
2021/01/18 05:38:10;;;;;;;18.73;12.77;;;0.50;99.90;;;1.17;100.00;98634.69;5228455;28;20202;-76
2021/01/18 05:40:45;;;;;;;19.40;13.87;;;0.50;99.90;;;1.12;100.00;98642.66;5230184;28;20232;-78
2021/01/18 05:43:19;;;;;;;18.20;13.87;;;0.50;99.90;;;1.16;100.00;98637.97;5229296;28;20708;-76
2021/01/18 05:46:04;;;;;;;17.80;13.47;;;0.60;99.90;;;1.27;100.00;98640.88;5226892;28;20774;-79
2021/01/18 05:48:36;;;;;;;20.10;13.67;;;0.60;99.90;;;1.21;99.32;98637.72;5227444;28;20195;-77
2021/01/18 05:51:09;;;;;;;21.60;13.60;;;0.60;99.90;;;1.19;100.00;98643.31;5228108;28;20206;-77
2021/01/18 05:53:44;;;;;;;17.83;13.57;;;0.60;99.90;;;1.15;100.00;98647.16;5227362;28;20219;-78
2021/01/18 05:56:17;;;;;;;19.63;13.53;;;0.60;99.90;;;1.13;100.00;98648.59;5230066;28;20210;-76
2021/01/18 05:58:50;;;;;;;18.43;13.87;;;0.60;99.90;;;1.13;100.00;98653.63;5223362;28;20206;-79
2021/01/18 06:01:39;;;;;;;18.43;14.33;;;0.60;99.90;;;1.17;100.00;98648.16;5225516;28;20200;-75
2021/01/18 06:04:13;;;;;;;19.67;15.20;;;0.60;99.90;;;1.17;100.00;98653.22;5217505;28;20680;-77
2021/01/18 06:06:54;;;;;;;20.53;14.60;;;0.70;99.90;;;1.17;100.00;98659.88;5216820;28;20219;-78
2021/01/18 06:09:46;;;;;;;21.37;16.40;;;0.70;99.90;;;1.21;100.00;98660.38;5226222;28;20209;-77
2021/01/18 06:12:24;;;;;;;20.60;15.77;;;0.70;99.90;;;1.18;100.00;98672.63;5215370;28;20772;-77
2021/01/18 06:15:05;;;;;;;18.40;15.00;;;0.70;99.90;;;1.18;100.00;98667.59;5217529;28;20229;-77
2021/01/18 06:17:43;;;;;;;17.23;14.63;;;0.70;99.90;;;1.20;100.00;98675.31;5227634;28;20229;-76
2021/01/18 06:20:20;;;;;;;22.47;16.47;;;0.80;99.90;;;1.24;100.00;98682.47;5227287;28;20270;-75
2021/01/18 06:22:54;;;;;;;22.97;16.10;;;0.70;99.90;;;1.26;100.00;98686.94;5225772;28;20300;-79
2021/01/18 06:25:34;;;;;;;20.40;15.30;;;0.80;99.90;;;1.25;100.00;98689.28;5226458;28;20763;-74
2021/01/18 06:28:27;;;;;;;23.07;15.93;;;0.80;99.90;;;1.31;100.00;98689.91;5225534;28;20396;-77
2021/01/18 06:31:01;;;;;;;21.60;15.63;;;0.80;99.90;;;1.36;100.00;98698.88;5226232;28;20226;-77
2021/01/18 06:33:41;;;;;;;20.20;16.07;;;0.70;99.90;;;1.30;100.00;98699.09;5224853;28;20217;-77
2021/01/18 06:36:18;;;;;;;25.40;17.23;;;0.70;99.90;;;1.29;100.00;98702.38;5225720;28;20661;-78
2021/01/18 06:39:00;;;;;;;23.20;17.73;;;0.70;99.90;;;1.28;100.00;98704.72;5222285;28;20207;-77
2021/01/18 06:41:35;;;;;;;23.43;17.57;;;0.70;99.90;;;1.24;100.00;98712.69;5224347;28;20191;-78
2021/01/18 06:44:08;;;;;;;25.03;18.23;;;0.70;99.90;;;1.26;99.93;98707.09;5214542;28;20718;-74
2021/01/18 06:46:40;;;;;;;25.97;18.83;;;0.70;99.90;;;1.23;100.00;98711.78;5219451;28;20306;-77
2021/01/18 06:49:15;;;;;;;24.43;17.63;;;0.70;99.90;;;1.24;100.00;98711.06;5210246;28;20294;-78
2021/01/18 06:51:55;;;;;;;27.77;18.80;;;0.70;99.90;;;1.37;100.00;98709.81;5224306;28;20202;-75
2021/01/18 06:54:30;;;;;;;23.77;17.47;;;0.70;99.90;;;1.29;99.53;98717.47;5224962;28;20209;-78
2021/01/18 06:57:20;;;;;;;29.63;19.13;;;0.70;99.90;;;1.28;100.00;98714.78;5225439;28;20264;-74
2021/01/18 06:59:55;;;;;;;25.97;18.20;;;0.70;99.90;;;1.28;99.80;98710.63;5221732;28;20869;-75
2021/01/18 07:02:31;;;;;;;34.20;17.87;;;0.70;99.90;;;1.34;99.61;98720.47;5220055;28;20245;-77
2021/01/18 07:05:10;;;;;;;33.70;19.00;;;0.70;99.90;;;1.30;100.00;98726.81;5223460;28;20237;-77
2021/01/18 07:07:55;;;;;;;29.73;18.97;;;0.70;99.90;;;1.25;100.00;98724.53;5218241;28;20281;-76
2021/01/18 07:10:31;;;;;;;25.03;17.90;;;0.70;99.90;;;1.22;100.00;98725.09;5223152;28;20216;-77
2021/01/18 07:13:06;;;;;;;27.73;18.13;;;0.60;99.90;;;1.21;100.00;98723.31;5219493;28;20602;-77
2021/01/18 07:15:52;;;;;;;29.17;20.23;;;0.70;99.90;;;1.21;100.00;98725.84;5203080;28;20203;-76
2021/01/18 07:18:27;;;;;;;26.30;17.63;;;0.60;99.90;;;1.20;100.00;98728.16;5206780;28;20212;-76
2021/01/18 07:21:04;;;;;;;28.40;18.47;;;0.70;99.90;;;1.22;100.00;98735.16;5227193;28;20214;-77
2021/01/18 07:23:53;;;;;;;27.93;19.40;;;0.70;99.90;;;1.24;100.00;98736.22;5227496;28;20230;-74
2021/01/18 07:26:54;;;;;;;28.77;19.90;;;0.70;99.90;;;1.27;100.00;98739.06;5223199;28;20214;-76
2021/01/18 07:29:26;;;;;;;28.80;20.07;;;0.70;99.90;;;1.30;100.00;98734.34;5226002;28;20216;-76
2021/01/18 07:32:00;;;;;;;27.77;19.00;;;0.70;99.90;;;1.27;100.00;98743.22;5225411;28;20223;-76
2021/01/18 07:34:37;;;;;;;32.83;21.97;;;0.70;99.90;;;1.32;100.00;98742.97;5226472;28;20198;-77
2021/01/18 07:37:11;;;;;;;32.67;21.07;;;0.70;99.90;;;1.31;100.00;98751.25;5211758;28;20306;-76
2021/01/18 07:39:45;;;;;;;33.87;22.33;;;0.70;99.90;;;1.32;100.00;98753.06;5225217;28;20303;-76
2021/01/18 07:42:40;;;;;;;31.37;20.77;;;0.70;99.90;;;1.37;100.00;98755.16;5225150;28;20222;-76
2021/01/18 07:45:16;;;;;;;33.90;21.47;;;0.70;99.90;;;1.32;100.00;98762.25;5225571;28;20213;-75
2021/01/18 07:48:06;;;;;;;30.50;20.30;;;0.70;99.90;;;1.31;100.00;98761.31;5207636;28;20603;-77
2021/01/18 07:50:41;;;;;;;29.20;20.87;;;0.70;99.90;;;1.30;100.00;98767.09;5223061;28;20191;-77
2021/01/18 07:53:15;;;;;;;31.37;21.33;;;0.80;99.90;;;1.33;100.00;98764.00;5226215;28;20417;-77
2021/01/18 07:56:02;;;;;;;29.93;21.23;;;0.80;99.90;;;1.34;100.00;98771.75;5214353;28;20285;-77
2021/01/18 07:58:34;;;;;;;30.77;20.63;;;0.80;99.90;;;1.37;100.00;98765.22;5206781;28;20203;-76
2021/01/18 08:01:08;;;;;;;34.67;23.93;;;0.80;99.90;;;1.38;100.00;98772.06;5216596;28;20192;-76
2021/01/18 08:03:40;;;;;;;33.93;23.13;;;0.80;99.90;;;1.40;100.00;98778.16;5211491;28;20216;-77
2021/01/18 08:06:12;;;;;;;38.70;24.13;;;0.80;99.90;;;1.40;100.00;98775.63;5208697;28;20773;-77
2021/01/18 08:08:46;;;;;;;33.67;24.30;;;0.90;99.90;;;1.42;100.00;98771.66;5213585;28;20208;-76
2021/01/18 08:11:19;;;;;;;39.67;25.33;;;0.90;99.90;;;1.46;100.00;98776.28;5207585;28;20213;-75
2021/01/18 08:13:55;;;;;;;37.73;25.27;;;0.90;99.90;;;1.47;100.00;98778.97;5222278;28;20241;-76
2021/01/18 08:16:35;;;;;;;34.67;23.70;;;0.90;99.90;;;1.50;100.00;98778.41;5208009;28;20530;-77
2021/01/18 08:19:12;;;;;;;33.40;23.93;;;1.00;99.90;;;1.54;100.00;98780.50;5223907;28;20206;-76
2021/01/18 08:22:01;;;;;;;36.90;24.33;;;1.00;99.90;;;1.58;100.00;98787.69;5220280;28;20252;-76
2021/01/18 08:24:54;;;;;;;35.83;22.53;;;1.00;99.90;;;1.61;100.00;98785.47;5204180;28;20248;-77
2021/01/18 08:27:46;;;;;;;30.73;21.47;;;1.10;99.90;;;1.65;100.00;98785.06;5225058;28;20210;-76
2021/01/18 08:30:34;;;;;;;32.77;20.77;;;1.10;99.90;;;1.72;100.00;98786.63;5225834;28;20526;-77
2021/01/18 08:33:10;;;;;;;28.23;19.13;;;1.10;99.90;;;1.71;100.00;98788.22;5224845;28;20746;-77
2021/01/18 08:35:49;;;;;;;33.40;21.70;;;1.20;99.90;;;1.75;100.00;98786.94;5227639;28;20746;-77
2021/01/18 08:38:25;;;;;;;28.97;19.93;;;1.20;99.90;;;1.80;100.00;98798.38;5226664;28;20202;-76
2021/01/18 08:41:08;;;;;;;26.40;18.17;;;1.20;99.90;;;1.82;100.00;98791.88;5226256;28;20196;-77
2021/01/18 08:43:48;;;;;;;28.53;17.90;;;1.20;99.90;;;1.87;100.00;98787.34;5208306;28;20221;-76
2021/01/18 08:46:39;;;;;;;23.47;16.87;;;1.20;99.90;;;1.88;100.00;98791.66;5226943;28;20216;-76
2021/01/18 08:49:28;;;;;;;25.33;18.20;;;1.30;99.90;;;1.91;100.00;98789.44;5226070;28;20239;-77
2021/01/18 08:52:01;;;;;;;23.07;17.93;;;1.30;99.90;;;1.95;100.00;98791.56;5224328;28;20409;-76
2021/01/18 08:54:36;;;;;;;23.67;17.50;;;1.30;99.90;;;2.01;100.00;98792.22;5209536;28;20207;-76
2021/01/18 08:57:24;;;;;;;25.23;17.10;;;1.40;99.90;;;2.02;100.00;98804.97;5225303;28;20188;-76
2021/01/18 09:00:07;;;;;;;23.47;18.00;;;1.40;99.90;;;2.08;100.00;98793.72;5225648;28;20198;-76
2021/01/18 09:02:41;;;;;;;26.83;18.23;;;1.50;99.90;;;2.17;100.00;98802.25;5224600;28;20761;-78
2021/01/18 09:05:19;;;;;;;23.70;17.27;;;1.50;99.90;;;2.19;100.00;98799.16;5211659;28;20205;-78
2021/01/18 09:07:51;;;;;;;20.57;16.20;;;1.60;99.90;;;2.21;100.00;98797.69;5205656;28;20334;-77
2021/01/18 09:10:24;;;;;;;19.63;14.63;;;1.60;99.90;;;2.24;100.00;98798.03;5225547;28;20668;-76
2021/01/18 09:13:06;;;;;;;16.50;13.87;;;1.60;99.90;;;2.25;99.72;98799.78;5224834;28;20311;-78
2021/01/18 09:15:44;;;;;;;23.90;14.93;;;1.60;99.90;;;2.28;99.97;98808.44;5226431;28;20232;-77
2021/01/18 09:18:16;;;;;;;22.07;14.10;;;1.60;99.90;;;2.29;100.00;98790.94;5226115;28;20214;-76
2021/01/18 09:20:50;;;;;;;18.93;13.80;;;1.60;99.90;;;2.32;99.84;98803.88;5224209;28;20212;-78
2021/01/18 09:23:25;;;;;;;17.90;14.70;;;1.60;99.90;;;2.34;99.59;98794.81;5214605;28;20320;-78
2021/01/18 09:26:04;;;;;;;18.00;13.87;;;1.70;99.90;;;2.41;100.00;98793.84;5213115;28;20241;-77
2021/01/18 09:28:37;;;;;;;18.50;14.90;;;1.70;99.90;;;2.46;100.00;98795.19;5222532;28;20205;-76
2021/01/18 09:31:13;;;;;;;21.33;16.07;;;1.80;99.90;;;2.48;100.00;98793.72;5222848;28;20562;-77
2021/01/18 09:33:47;;;;;;;21.70;14.47;;;1.80;99.90;;;2.52;99.60;98795.84;5223843;28;20943;-76
2021/01/18 09:36:22;;;;;;;18.03;14.93;;;1.80;99.90;;;2.49;99.72;98795.53;5224622;28;20193;-78
2021/01/18 09:38:54;;;;;;;18.10;13.90;;;1.80;99.90;;;2.55;99.89;98798.69;5225306;28;20288;-77
2021/01/18 09:41:28;;;;;;;19.87;14.03;;;1.90;99.90;;;2.57;99.85;98794.66;5223323;28;20197;-77
2021/01/18 09:44:07;;;;;;;16.77;13.10;;;1.90;99.90;;;2.69;100.00;98800.97;5224301;28;20303;-78
2021/01/18 09:46:43;;;;;;;20.93;14.97;;;2.00;99.90;;;2.78;100.00;98792.56;5206122;28;20225;-76
2021/01/18 09:49:25;;;;;;;19.90;16.97;;;2.10;99.90;;;2.86;100.00;98799.25;5205660;28;20288;-76
2021/01/18 09:51:57;;;;;;;21.13;16.73;;;2.20;99.90;;;2.90;100.00;98797.22;5204381;28;20202;-76
2021/01/18 09:54:29;;;;;;;24.27;16.83;;;2.30;99.90;;;3.04;100.00;98790.16;5222807;28;20311;-76
2021/01/18 09:57:10;;;;;;;19.67;15.30;;;2.30;99.90;;;3.08;100.00;98793.13;5224425;28;20216;-76
2021/01/18 09:59:45;;;;;;;17.97;13.57;;;2.40;99.90;;;3.19;100.00;98796.75;5224193;28;20283;-77
2021/01/18 10:02:22;;;;;;;21.13;14.10;;;2.40;99.90;;;3.32;100.00;98793.78;5222937;28;20694;-76
2021/01/18 10:04:55;;;;;;;19.33;14.60;;;2.40;99.90;;;3.42;100.00;98788.94;5210951;28;20201;-78
2021/01/18 10:07:28;;;;;;;18.10;14.20;;;2.40;99.90;;;3.40;100.00;98785.34;5225511;28;20308;-77
2021/01/18 10:10:02;;;;;;;21.83;14.30;;;2.50;99.90;;;3.47;100.00;98784.34;5224843;28;20212;-78
2021/01/18 10:12:38;;;;;;;18.87;14.00;;;2.50;99.90;;;3.47;99.75;98780.19;5223857;28;20216;-77
2021/01/18 10:15:11;;;;;;;19.97;14.50;;;2.50;99.90;;;3.43;98.92;98778.06;5225166;28;20280;-77
2021/01/18 10:17:43;;;;;;;21.20;14.43;;;2.40;99.90;;;3.46;99.47;98778.38;5225148;28;20684;-76
2021/01/18 10:20:23;;;;;;;15.90;13.90;;;2.40;99.90;;;3.43;99.23;98777.19;5224816;28;20259;-77
2021/01/18 10:22:56;;;;;;;19.43;14.00;;;2.40;99.90;;;3.47;98.74;98775.13;5214701;28;20221;-76
2021/01/18 10:25:30;;;;;;;16.03;13.47;;;2.40;99.90;;;3.52;99.21;98778.09;5222197;28;20193;-76
2021/01/18 10:28:02;;;;;;;15.93;11.67;;;2.50;99.90;;;3.64;98.83;98768.31;5221711;28;20227;-77
2021/01/18 10:30:36;;;;;;;13.03;10.43;;;2.50;99.90;;;3.69;98.06;98774.69;5214044;28;20288;-76
2021/01/18 10:33:16;;;;;;;11.23;10.10;;;2.40;99.90;;;3.67;97.38;98764.44;5222640;28;20244;-75
2021/01/18 10:35:51;;;;;;;13.07;10.27;;;2.50;99.90;;;3.67;98.01;98771.16;5222429;28;20243;-75
2021/01/18 10:38:23;;;;;;;10.03;8.70;;;2.50;99.90;;;3.81;96.99;98763.28;5220880;28;20579;-76
2021/01/18 10:41:05;;;;;;;12.30;9.60;;;2.50;99.90;;;3.82;95.88;98758.34;5221740;28;20201;-76
2021/01/18 10:43:47;;;;;;;11.77;8.73;;;2.50;99.90;;;3.84;94.25;98759.41;5221501;28;20228;-77
2021/01/18 10:46:20;;;;;;;9.90;8.90;;;2.50;99.90;;;3.92;94.70;98767.75;5221263;28;20701;-76
2021/01/18 10:48:57;;;;;;;10.77;9.20;;;2.60;99.90;;;4.03;95.27;98766.22;5222131;28;20199;-80
2021/01/18 10:51:30;;;;;;;15.07;10.00;;;2.60;99.90;;;4.02;93.01;98755.22;5221725;28;20206;-74
2021/01/18 10:54:02;;;;;;;10.30;9.30;;;2.60;99.90;;;4.10;91.83;98755.09;5223167;28;20253;-75
2021/01/18 10:56:56;;;;;;;9.83;8.07;;;2.70;99.90;;;4.02;93.73;98750.16;5222449;28;20199;-75